Time;durP1;ratioP1;P1;durP2;ratioP2;P2;SDS_P1;SDS_P2;PMS_P1;PMS_P2;Temp;Humidity;BMP_temperature;BMP_pressure;BME280_temperature;BME280_humidity;BME280_pressure;Samples;Min_cycle;Max_cycle;Signal;HPM_P1;HPM_P2
2023/02/06 00:01:06;;;;;;;12.18;6.80;;;;;;;-146.47;100.00;65468.63;4700935;30;20496;-80
2023/02/06 00:03:40;;;;;;;11.45;6.20;;;;;;;-146.47;100.00;65468.63;4703783;30;20088;-81
2023/02/06 00:06:06;;;;;;;13.07;6.68;;;;;;;-146.47;100.00;65468.63;4706605;30;20072;-80
2023/02/06 00:08:33;;;;;;;12.65;7.38;;;;;;;-146.47;100.00;65468.63;4704530;30;20069;-80
2023/02/06 00:11:02;;;;;;;11.98;6.85;;;;;;;-146.47;100.00;65468.63;4705499;30;20131;-81
2023/02/06 00:13:27;;;;;;;11.55;6.28;;;;;;;-146.47;100.00;65468.63;4704205;30;20163;-81
2023/02/06 00:15:53;;;;;;;11.60;6.65;;;;;;;-146.47;100.00;65468.63;4705892;30;20078;-81
2023/02/06 00:18:18;;;;;;;13.45;7.07;;;;;;;-146.47;100.00;65468.63;4716789;30;20118;-81
2023/02/06 00:20:44;;;;;;;13.32;7.00;;;;;;;-146.47;100.00;65468.63;4704852;30;20050;-81
2023/02/06 00:23:09;;;;;;;11.95;6.88;;;;;;;-146.47;100.00;65468.63;4698258;30;20140;-81
2023/02/06 00:25:35;;;;;;;12.75;6.80;;;;;;;-146.47;100.00;65468.63;4714073;30;20060;-82
2023/02/06 00:28:00;;;;;;;14.38;6.95;;;;;;;-146.47;100.00;65468.63;4702296;30;20045;-81
2023/02/06 00:30:26;;;;;;;14.45;7.50;;;;;;;-146.47;100.00;65468.63;4712288;30;20131;-83
2023/02/06 00:32:51;;;;;;;12.68;6.85;;;;;;;-146.47;100.00;65468.63;4708493;30;20065;-79
2023/02/06 00:35:17;;;;;;;13.13;7.22;;;;;;;-146.47;100.00;65468.63;4705553;30;20049;-82
2023/02/06 00:37:43;;;;;;;15.45;7.97;;;;;;;-146.47;100.00;65468.63;4702481;30;20057;-79
2023/02/06 00:40:09;;;;;;;16.52;7.60;;;;;;;-146.47;100.00;65468.63;4707388;30;20056;-79
2023/02/06 00:42:34;;;;;;;15.57;7.90;;;;;;;-146.47;100.00;65468.63;4698686;30;20507;-79
2023/02/06 00:45:00;;;;;;;15.65;8.63;;;;;;;-146.47;100.00;65468.63;4702375;30;20049;-79
2023/02/06 00:47:25;;;;;;;13.73;7.72;;;;;;;-146.47;100.00;65468.63;4698620;30;20076;-79
2023/02/06 00:49:51;;;;;;;17.23;8.90;;;;;;;-146.47;100.00;65468.63;4707173;30;20053;-79
2023/02/06 00:52:16;;;;;;;18.58;8.75;;;;;;;-146.47;100.00;65468.63;4699057;30;20056;-79
2023/02/06 00:54:42;;;;;;;15.95;7.85;;;;;;;-146.47;100.00;65468.63;4701169;30;20511;-79
2023/02/06 00:57:07;;;;;;;17.38;8.55;;;;;;;-146.47;100.00;65468.63;4711912;30;20056;-79
2023/02/06 00:59:33;;;;;;;16.92;8.43;;;;;;;-146.47;100.00;65468.63;4705983;30;20053;-79
2023/02/06 01:01:58;;;;;;;24.63;9.35;;;;;;;-146.47;100.00;65468.63;4705661;30;20057;-79
2023/02/06 01:04:24;;;;;;;16.52;8.65;;;;;;;-146.47;100.00;65468.63;4699125;30;20045;-79
2023/02/06 01:06:50;;;;;;;17.52;8.27;;;;;;;-146.47;100.00;65468.63;4710769;30;20111;-79
2023/02/06 01:09:15;;;;;;;18.20;9.25;;;;;;;-146.47;100.00;65468.63;4697695;30;20056;-79
2023/02/06 01:11:41;;;;;;;16.33;8.38;;;;;;;-146.47;100.00;65468.63;4706531;30;20088;-79
2023/02/06 01:14:06;;;;;;;16.42;8.80;;;;;;;-146.47;100.00;65468.63;4719946;30;20052;-79
2023/02/06 01:16:32;;;;;;;17.58;8.77;;;;;;;-146.47;100.00;65468.63;4708341;30;20041;-79
2023/02/06 01:18:58;;;;;;;18.02;9.57;;;;;;;-146.47;100.00;65468.63;4702186;30;20061;-80
2023/02/06 01:21:24;;;;;;;17.13;9.93;;;;;;;-146.47;100.00;65468.63;4709960;30;20053;-80
2023/02/06 01:23:52;;;;;;;20.45;9.75;;;;;;;-146.47;100.00;65468.63;4709286;30;20056;-80
2023/02/06 01:26:21;;;;;;;20.15;9.80;;;;;;;-146.47;100.00;65468.63;4705608;30;20431;-80
2023/02/06 01:28:47;;;;;;;18.15;9.38;;;;;;;-146.47;100.00;65468.63;4710741;30;20172;-80
2023/02/06 01:31:19;;;;;;;18.30;9.65;;;;;;;-146.47;100.00;65468.63;4711355;30;20115;-80
2023/02/06 01:33:46;;;;;;;20.17;10.23;;;;;;;-146.47;100.00;65468.63;4703944;30;20061;-80
2023/02/06 01:36:13;;;;;;;25.35;9.88;;;;;;;-146.47;100.00;65468.63;4706235;30;20045;-80
2023/02/06 01:38:39;;;;;;;24.75;10.65;;;;;;;-146.47;100.00;65468.63;4697495;30;20046;-80
2023/02/06 01:41:07;;;;;;;19.92;10.30;;;;;;;-146.47;100.00;65468.63;4701676;30;20053;-80
2023/02/06 01:43:34;;;;;;;18.00;10.13;;;;;;;-146.47;100.00;65468.63;4697495;30;20056;-80
2023/02/06 01:46:01;;;;;;;20.67;9.85;;;;;;;-146.47;100.00;65468.63;4707258;30;20049;-80
2023/02/06 01:48:41;;;;;;;22.52;10.30;;;;;;;-146.47;100.00;65468.63;4713473;30;20033;-80
2023/02/06 01:51:12;;;;;;;20.40;10.15;;;;;;;-146.47;100.00;65468.63;4708508;30;20045;-80
2023/02/06 01:53:41;;;;;;;18.70;9.98;;;;;;;-146.47;100.00;65468.63;4702167;30;20105;-80
2023/02/06 01:56:08;;;;;;;22.80;10.32;;;;;;;-146.47;100.00;65468.63;4710597;30;20049;-80
2023/02/06 01:58:41;;;;;;;22.75;10.55;;;;;;;-146.47;100.00;65468.63;4702318;30;20112;-79
2023/02/06 02:01:08;;;;;;;23.38;11.57;;;;;;;-146.47;100.00;65468.63;4702863;30;20049;-79
2023/02/06 02:03:36;;;;;;;22.55;10.70;;;;;;;-146.47;100.00;65468.63;4702215;30;20525;-79
2023/02/06 02:06:09;;;;;;;24.90;11.25;;;;;;;-146.47;100.00;65468.63;4700480;30;20400;-79
2023/02/06 02:08:41;;;;;;;24.35;11.05;;;;;;;-146.47;100.00;65468.63;4700250;30;20392;-79
2023/02/06 02:11:09;;;;;;;22.50;10.77;;;;;;;-146.47;100.00;65468.63;4699011;30;20053;-79
2023/02/06 02:13:37;;;;;;;21.98;10.27;;;;;;;-146.47;100.00;65468.63;4696796;30;20042;-79
2023/02/06 02:16:21;;;;;;;23.80;11.57;;;;;;;-146.47;100.00;65468.63;4697548;30;20084;-79
2023/02/06 02:18:58;;;;;;;24.98;10.88;;;;;;;-146.47;100.00;65468.63;4699229;30;20060;-79
2023/02/06 02:21:27;;;;;;;22.40;11.40;;;;;;;-146.47;100.00;65468.63;4705388;30;20038;-79
2023/02/06 02:24:07;;;;;;;26.05;11.27;;;;;;;-146.47;100.00;65468.63;4706448;30;20098;-80
2023/02/06 02:26:51;;;;;;;22.95;11.77;;;;;;;-146.47;100.00;65468.63;4697730;30;20053;-79
2023/02/06 02:29:20;;;;;;;19.27;10.70;;;;;;;-146.47;100.00;65468.63;4697401;30;20052;-79
2023/02/06 02:32:05;;;;;;;24.38;10.55;;;;;;;-146.47;100.00;65468.63;4696818;30;20435;-80
2023/02/06 02:34:55;;;;;;;25.60;10.95;;;;;;;-146.47;100.00;65468.63;4710941;30;20045;-79
2023/02/06 02:37:34;;;;;;;24.92;11.30;;;;;;;-146.47;100.00;65468.63;4699385;30;20049;-79
2023/02/06 02:40:12;;;;;;;24.77;11.77;;;;;;;-146.47;100.00;65468.63;4700902;30;20412;-79
2023/02/06 02:42:57;;;;;;;25.48;11.73;;;;;;;-146.47;100.00;65468.63;4705952;30;20053;-79
2023/02/06 02:45:32;;;;;;;27.77;12.43;;;;;;;-146.47;100.00;65468.63;4707021;30;20665;-79
2023/02/06 02:48:05;;;;;;;;;;;;;;;-146.47;100.00;65468.63;4708956;30;20049;-80
2023/02/06 02:50:32;;;;;;;24.42;11.60;;;;;;;-146.47;100.00;65468.63;4709660;30;19926;-79
2023/02/06 02:52:59;;;;;;;29.92;12.15;;;;;;;-146.47;100.00;65468.63;4703278;30;20052;-79
2023/02/06 02:55:25;;;;;;;29.10;12.20;;;;;;;-146.47;100.00;65468.63;4716514;30;20041;-79
2023/02/06 02:58:01;;;;;;;26.23;12.50;;;;;;;-146.47;100.00;65468.63;4713196;30;20434;-79
2023/02/06 03:00:29;;;;;;;24.80;12.30;;;;;;;-146.47;100.00;65468.63;4705397;30;20053;-80
2023/02/06 03:02:57;;;;;;;27.15;11.95;;;;;;;-146.47;100.00;65468.63;4707199;30;20045;-79
2023/02/06 03:05:24;;;;;;;26.08;11.93;;;;;;;-146.47;100.00;65468.63;4700600;30;20046;-79
2023/02/06 03:08:01;;;;;;;26.95;12.60;;;;;;;-146.47;100.00;65468.63;4703655;30;20045;-79
2023/02/06 03:10:38;;;;;;;29.92;12.82;;;;;;;-146.47;100.00;65468.63;4709355;30;20045;-80
2023/02/06 03:13:25;;;;;;;25.80;12.82;;;;;;;-146.47;100.00;65468.63;4703729;30;20499;-79
2023/02/06 03:15:59;;;;;;;27.33;12.85;;;;;;;-146.47;100.00;65468.63;4716599;30;20056;-79
2023/02/06 03:18:43;;;;;;;27.83;12.52;;;;;;;-146.47;100.00;65468.63;4704880;30;20115;-79
2023/02/06 03:21:12;;;;;;;27.70;12.10;;;;;;;-146.47;100.00;65468.63;4704495;30;20060;-79
2023/02/06 03:23:40;;;;;;;27.15;11.60;;;;;;;-146.47;100.00;65468.63;4709923;30;20054;-78
2023/02/06 03:26:11;;;;;;;32.50;13.02;;;;;;;-146.47;100.00;65468.63;4703088;30;20049;-79
2023/02/06 03:28:43;;;;;;;22.77;10.40;;;;;;;-146.47;100.00;65468.63;4701249;30;20045;-78
2023/02/06 03:31:14;;;;;;;24.20;9.07;;;;;;;-146.47;100.00;65468.63;4708793;30;20056;-79
2023/02/06 03:33:50;;;;;;;31.00;13.75;;;;;;;-146.47;100.00;65468.63;4714056;30;20049;-79
2023/02/06 03:36:18;;;;;;;32.75;13.75;;;;;;;-146.47;100.00;65468.63;4714645;30;20534;-78
2023/02/06 03:38:46;;;;;;;33.22;14.68;;;;;;;-146.47;100.00;65468.63;4702142;30;20045;-79
2023/02/06 03:41:14;;;;;;;34.60;13.77;;;;;;;-146.47;100.00;65468.63;4714516;30;20048;-78
2023/02/06 03:43:42;;;;;;;31.50;13.88;;;;;;;-146.47;100.00;65468.63;4714303;30;20115;-78
2023/02/06 03:46:11;;;;;;;35.60;14.10;;;;;;;-146.47;100.00;65468.63;4700231;30;20055;-78
2023/02/06 03:48:44;;;;;;;37.10;14.75;;;;;;;-146.47;100.00;65468.63;4703219;30;20058;-78
2023/02/06 03:51:16;;;;;;;38.38;15.30;;;;;;;-146.47;100.00;65468.63;4708370;30;20053;-78
2023/02/06 03:53:46;;;;;;;35.40;15.07;;;;;;;-146.47;100.00;65468.63;4700677;30;20633;-78
2023/02/06 03:56:22;;;;;;;35.90;14.98;;;;;;;-146.47;100.00;65468.63;4699965;30;20107;-78
2023/02/06 03:58:48;;;;;;;35.42;13.93;;;;;;;-146.47;100.00;65468.63;4702271;30;20061;-78
2023/02/06 04:01:14;;;;;;;39.72;15.07;;;;;;;-146.47;100.00;65468.63;4700172;30;20045;-78
2023/02/06 04:03:40;;;;;;;36.80;15.10;;;;;;;-146.47;100.00;65468.63;4702794;30;20076;-78
2023/02/06 04:06:06;;;;;;;36.33;14.65;;;;;;;-146.47;100.00;65468.63;4701871;30;20050;-78
2023/02/06 04:08:31;;;;;;;40.28;15.02;;;;;;;-146.47;100.00;65468.63;4709807;30;20095;-78
2023/02/06 04:10:57;;;;;;;37.30;16.02;;;;;;;-146.47;100.00;65468.63;4703286;30;20045;-78
2023/02/06 04:13:22;;;;;;;43.67;16.70;;;;;;;-146.47;100.00;65468.63;4704407;30;20131;-78
2023/02/06 04:15:48;;;;;;;37.53;14.45;;;;;;;-146.47;100.00;65468.63;4708460;30;20050;-78
2023/02/06 04:18:14;;;;;;;43.95;16.63;;;;;;;-146.47;100.00;65468.63;4706254;30;20504;-77
2023/02/06 04:20:39;;;;;;;40.97;14.30;;;;;;;-146.47;100.00;65468.63;4706959;30;20068;-78
2023/02/06 04:23:06;;;;;;;38.83;15.20;;;;;;;-146.47;100.00;65468.63;4702229;30;20119;-77
2023/02/06 04:25:32;;;;;;;36.58;14.50;;;;;;;-146.47;100.00;65468.63;4701229;30;20045;-77
2023/02/06 04:27:58;;;;;;;36.45;14.25;;;;;;;-146.47;100.00;65468.63;4708658;30;20049;-77
2023/02/06 04:30:24;;;;;;;36.15;14.52;;;;;;;-146.47;100.00;65468.63;4705120;30;20045;-77
2023/02/06 04:32:50;;;;;;;37.80;15.02;;;;;;;-146.47;100.00;65468.63;4705513;30;20053;-77
2023/02/06 04:35:15;;;;;;;39.75;14.35;;;;;;;-146.47;100.00;65468.63;4701843;30;20041;-77
2023/02/06 04:37:41;;;;;;;37.08;14.25;;;;;;;-146.47;100.00;65468.63;4702006;30;20049;-77
2023/02/06 04:40:07;;;;;;;36.60;15.15;;;;;;;-146.47;100.00;65468.63;4703429;30;20041;-77
2023/02/06 04:42:33;;;;;;;34.00;13.68;;;;;;;-146.47;100.00;65468.63;4702161;30;20054;-77
2023/02/06 04:44:58;;;;;;;37.45;15.48;;;;;;;-146.47;100.00;65468.63;4704340;30;20107;-77
2023/02/06 04:47:24;;;;;;;43.97;16.67;;;;;;;-146.47;100.00;65468.63;4700724;30;20049;-77
2023/02/06 04:49:49;;;;;;;42.88;16.35;;;;;;;-146.47;100.00;65468.63;4703109;30;20045;-77
2023/02/06 04:52:15;;;;;;;42.65;16.65;;;;;;;-146.47;100.00;65468.63;4698771;30;20064;-77
2023/02/06 04:54:40;;;;;;;44.05;16.80;;;;;;;-146.47;100.00;65468.63;4700108;30;20058;-77
2023/02/06 04:57:06;;;;;;;44.97;16.35;;;;;;;-146.47;100.00;65468.63;4700606;30;20046;-77
2023/02/06 04:59:31;;;;;;;45.22;17.38;;;;;;;-146.47;100.00;65468.63;4703481;30;20038;-78
2023/02/06 05:01:57;;;;;;;47.03;17.67;;;;;;;-146.47;100.00;65468.63;4712849;30;20788;-78
2023/02/06 05:04:22;;;;;;;34.50;14.98;;;;;;;-146.47;100.00;65468.63;4701258;30;20693;-78
2023/02/06 05:06:48;;;;;;;42.85;15.30;;;;;;;-146.47;100.00;65468.63;4705924;30;20140;-78
2023/02/06 05:09:13;;;;;;;40.97;15.60;;;;;;;-146.47;100.00;65468.63;4714246;30;20051;-78
2023/02/06 05:11:39;;;;;;;38.72;14.80;;;;;;;-146.47;100.00;65468.63;4702601;30;20419;-79
2023/02/06 05:14:05;;;;;;;39.00;15.30;;;;;;;-146.47;100.00;65468.63;4703048;30;20053;-79
2023/02/06 05:16:30;;;;;;;35.67;14.70;;;;;;;-146.47;100.00;65468.63;4710044;30;20045;-80
2023/02/06 05:18:56;;;;;;;45.28;16.42;;;;;;;-146.47;100.00;65468.63;4709135;30;20049;-80
2023/02/06 05:21:23;;;;;;;38.42;15.77;;;;;;;-146.47;100.00;65468.63;4714493;30;20069;-80
2023/02/06 05:23:49;;;;;;;41.53;15.38;;;;;;;-146.47;100.00;65468.63;4716461;30;20053;-80
2023/02/06 05:26:14;;;;;;;41.17;15.93;;;;;;;-146.47;100.00;65468.63;4700391;30;20430;-80
2023/02/06 05:28:40;;;;;;;33.72;13.98;;;;;;;-146.47;100.00;65468.63;4707315;30;20056;-80
2023/02/06 05:31:06;;;;;;;35.08;14.68;;;;;;;-146.47;100.00;65468.63;4699103;30;20057;-80
2023/02/06 05:33:31;;;;;;;34.22;15.57;;;;;;;-146.47;100.00;65468.63;4704312;30;20041;-79
2023/02/06 05:36:05;;;;;;;36.13;14.07;;;;;;;-146.47;100.00;65468.63;4696504;30;20057;-78
2023/02/06 05:38:31;;;;;;;32.05;14.27;;;;;;;-146.47;100.00;65468.63;4700098;30;20107;-78
2023/02/06 05:40:57;;;;;;;30.60;13.50;;;;;;;-146.47;100.00;65468.63;4703722;30;20053;-77
2023/02/06 05:43:23;;;;;;;31.52;14.35;;;;;;;-146.47;100.00;65468.63;4713106;30;20045;-76
2023/02/06 05:45:49;;;;;;;35.88;13.98;;;;;;;-146.47;100.00;65468.63;4706130;30;20061;-76
2023/02/06 05:48:14;;;;;;;33.90;14.98;;;;;;;-146.47;100.00;65468.63;4701929;30;20056;-76
2023/02/06 05:50:40;;;;;;;35.30;14.68;;;;;;;-146.47;100.00;65468.63;4698821;30;20117;-75
2023/02/06 05:53:05;;;;;;;39.00;15.40;;;;;;;-146.47;100.00;65468.63;4699140;30;20080;-75
2023/02/06 05:55:31;;;;;;;34.78;14.48;;;;;;;-146.47;100.00;65468.63;4698689;30;20093;-75
2023/02/06 05:57:56;;;;;;;38.72;14.38;;;;;;;-146.47;100.00;65468.63;4705029;30;20053;-74
2023/02/06 06:00:22;;;;;;;33.60;14.10;;;;;;;-146.47;100.00;65468.63;4702701;30;20500;-74
2023/02/06 06:02:48;;;;;;;32.65;13.75;;;;;;;-146.47;100.00;65468.63;4700254;30;20057;-73
2023/02/06 06:05:13;;;;;;;39.97;14.40;;;;;;;-146.47;100.00;65468.63;4702529;30;20054;-73
2023/02/06 06:07:39;;;;;;;31.48;13.48;;;;;;;-146.47;100.00;65468.63;4699976;30;20077;-73
2023/02/06 06:10:06;;;;;;;38.85;15.48;;;;;;;-146.47;100.00;65468.63;4704001;30;20076;-73
2023/02/06 06:12:31;;;;;;;37.53;14.82;;;;;;;-146.47;100.00;65468.63;4708334;30;20065;-73
2023/02/06 06:14:57;;;;;;;37.60;16.20;;;;;;;-146.47;100.00;65468.63;4703143;30;20054;-73
2023/02/06 06:17:22;;;;;;;43.92;16.80;;;;;;;-146.47;100.00;65468.63;4703993;30;20490;-73
2023/02/06 06:19:48;;;;;;;34.03;15.07;;;;;;;-146.47;100.00;65468.63;4701739;30;20132;-73
2023/02/06 06:22:13;;;;;;;29.98;14.43;;;;;;;-146.47;100.00;65468.63;4695872;30;20053;-72
2023/02/06 06:24:39;;;;;;;32.15;13.88;;;;;;;-146.47;100.00;65468.63;4703673;30;20424;-72
2023/02/06 06:27:07;;;;;;;38.63;14.57;;;;;;;-146.47;100.00;65468.63;4712030;30;20060;-72
2023/02/06 06:29:32;;;;;;;35.40;15.30;;;;;;;-146.47;100.00;65468.63;4704334;30;20082;-71
2023/02/06 06:31:58;;;;;;;37.75;14.00;;;;;;;-146.47;100.00;65468.63;4702691;30;20053;-72
2023/02/06 06:34:23;;;;;;;35.10;14.65;;;;;;;-146.47;100.00;65468.63;4699122;30;20060;-72
2023/02/06 06:36:49;;;;;;;35.65;14.27;;;;;;;-146.47;100.00;65468.63;4708064;30;20100;-72
2023/02/06 06:39:15;;;;;;;30.48;12.90;;;;;;;-146.47;100.00;65468.63;4697052;30;20492;-72
2023/02/06 06:41:40;;;;;;;33.05;14.55;;;;;;;-146.47;100.00;65468.63;4700977;30;20440;-72
2023/02/06 06:44:06;;;;;;;32.50;14.48;;;;;;;-146.47;100.00;65468.63;4696427;30;20538;-72
2023/02/06 06:46:31;;;;;;;30.52;12.93;;;;;;;-146.47;100.00;65468.63;4702481;30;20472;-72
2023/02/06 06:48:57;;;;;;;41.78;14.77;;;;;;;-146.47;100.00;65468.63;4703248;30;20056;-72
2023/02/06 06:51:22;;;;;;;35.78;15.23;;;;;;;-146.47;100.00;65468.63;4698897;30;20053;-72
2023/02/06 06:53:48;;;;;;;32.55;14.30;;;;;;;-146.47;100.00;65468.63;4704820;30;20053;-73
2023/02/06 06:56:14;;;;;;;37.45;14.82;;;;;;;-146.47;100.00;65468.63;4707488;30;20041;-74
2023/02/06 06:58:40;;;;;;;36.80;14.50;;;;;;;-146.47;100.00;65468.63;4702885;30;20503;-73
2023/02/06 07:01:07;;;;;;;42.20;14.77;;;;;;;-146.47;100.00;65468.63;4703300;30;20049;-71
2023/02/06 07:03:33;;;;;;;31.27;14.35;;;;;;;-146.47;100.00;65468.63;4700495;30;20103;-72
2023/02/06 07:05:58;;;;;;;33.88;13.45;;;;;;;-146.47;100.00;65468.63;4703741;30;20058;-73
2023/02/06 07:08:24;;;;;;;38.05;14.68;;;;;;;-146.47;100.00;65468.63;4699443;30;20062;-73
2023/02/06 07:10:49;;;;;;;35.55;14.60;;;;;;;-146.47;100.00;65468.63;4702010;30;20052;-74
2023/02/06 07:13:15;;;;;;;31.65;13.65;;;;;;;-146.47;100.00;65468.63;4704376;30;20431;-73
2023/02/06 07:15:41;;;;;;;36.13;14.73;;;;;;;-146.47;100.00;65468.63;4697279;30;20112;-73
2023/02/06 07:18:07;;;;;;;38.17;14.15;;;;;;;-146.47;100.00;65468.63;4701159;30;20408;-72
2023/02/06 07:20:33;;;;;;;35.97;15.30;;;;;;;-146.47;100.00;65468.63;4702936;30;20057;-73
2023/02/06 07:23:00;;;;;;;33.65;14.32;;;;;;;-146.47;100.00;65468.63;4706727;30;20061;-74
2023/02/06 07:25:26;;;;;;;33.22;14.50;;;;;;;-146.47;100.00;65468.63;4702171;30;20049;-74
2023/02/06 07:27:52;;;;;;;31.90;14.32;;;;;;;-146.47;100.00;65468.63;4706871;30;20045;-76
2023/02/06 07:30:17;;;;;;;34.33;14.45;;;;;;;-146.47;100.00;65468.63;4704611;30;20621;-72
2023/02/06 07:32:43;;;;;;;36.22;15.27;;;;;;;-146.47;100.00;65468.63;4700248;30;20061;-72
2023/02/06 07:35:09;;;;;;;35.30;15.73;;;;;;;-146.47;100.00;65468.63;4700084;30;20577;-73
2023/02/06 07:37:35;;;;;;;34.63;16.00;;;;;;;-146.47;100.00;65468.63;4708648;30;20095;-74
2023/02/06 07:40:01;;;;;;;41.90;15.77;;;;;;;-146.47;100.00;65468.63;4708058;30;20057;-73
2023/02/06 07:42:26;;;;;;;40.38;15.82;;;;;;;-146.47;100.00;65468.63;4705065;30;20049;-73
2023/02/06 07:44:52;;;;;;;39.67;17.08;;;;;;;-146.47;100.00;65468.63;4707863;30;20132;-73
2023/02/06 07:47:17;;;;;;;50.65;19.95;;;;;;;-146.47;100.00;65468.63;4710465;30;20651;-72
2023/02/06 07:49:43;;;;;;;48.85;19.17;;;;;;;-146.47;100.00;65468.63;4707015;30;20135;-73
2023/02/06 07:52:09;;;;;;;49.95;20.13;;;;;;;-146.47;100.00;65468.63;4704251;30;20114;-73
2023/02/06 07:54:34;;;;;;;44.80;18.30;;;;;;;-146.47;100.00;65468.63;4698992;30;20042;-73
2023/02/06 07:57:00;;;;;;;45.13;20.58;;;;;;;-146.47;100.00;65468.63;4700891;30;20052;-72
2023/02/06 07:59:25;;;;;;;45.13;18.83;;;;;;;-146.47;100.00;65468.63;4706233;30;20056;-73
2023/02/06 08:01:51;;;;;;;44.63;19.67;;;;;;;-146.47;100.00;65468.63;4707924;30;20503;-73
2023/02/06 08:04:17;;;;;;;40.35;17.67;;;;;;;-146.47;100.00;65468.63;4705016;30;20066;-74
2023/02/06 08:06:42;;;;;;;46.03;19.35;;;;;;;-146.47;100.00;65468.63;4709138;30;20049;-75
2023/02/06 08:09:11;;;;;;;41.60;18.17;;;;;;;-146.47;100.00;65468.63;4712540;30;20050;-73
2023/02/06 08:11:37;;;;;;;32.10;12.10;;;;;;;-146.47;100.00;65468.63;4705547;30;20719;-76
2023/02/06 08:14:03;;;;;;;25.95;12.23;;;;;;;-146.47;100.00;65468.63;4701533;30;20060;-73
2023/02/06 08:16:29;;;;;;;27.00;12.20;;;;;;;-146.47;100.00;65468.63;4706036;30;20049;-73
2023/02/06 08:18:54;;;;;;;24.83;11.13;;;;;;;-146.47;100.00;65468.63;4698726;30;20763;-73
2023/02/06 08:21:22;;;;;;;26.15;10.43;;;;;;;-146.47;100.00;65468.63;4702934;30;20088;-74
2023/02/06 08:23:55;;;;;;;24.88;10.52;;;;;;;-146.47;100.00;65468.63;4703964;30;20053;-73
2023/02/06 08:26:22;;;;;;;24.63;10.30;;;;;;;-146.47;100.00;65468.63;4699634;30;20111;-73
2023/02/06 08:28:48;;;;;;;24.23;10.93;;;;;;;-146.47;100.00;65468.63;4709959;30;20049;-73
2023/02/06 08:31:27;;;;;;;29.20;10.82;;;;;;;-146.47;100.00;65468.63;4701021;30;20057;-76
2023/02/06 08:33:53;;;;;;;22.38;11.15;;;;;;;-146.47;100.00;65468.63;4706584;30;20061;-78
2023/02/06 08:36:20;;;;;;;30.25;11.73;;;;;;;-146.47;100.00;65468.63;4710917;30;20049;-73
2023/02/06 08:38:47;;;;;;;28.27;12.75;;;;;;;-146.47;100.00;65468.63;4700667;30;20132;-72
2023/02/06 08:41:35;;;;;;;18.45;8.57;;;;;;;-146.47;100.00;65468.63;4705099;30;20045;-73
2023/02/06 08:44:02;;;;;;;20.10;8.75;;;;;;;-146.47;100.00;65468.63;4697524;30;20140;-72
2023/02/06 08:46:31;;;;;;;21.55;9.50;;;;;;;-146.47;100.00;65468.63;4704658;30;20049;-72
2023/02/06 08:49:03;;;;;;;19.52;8.18;;;;;;;-146.47;100.00;65468.63;4701866;30;20072;-73
2023/02/06 08:51:30;;;;;;;17.85;8.35;;;;;;;-146.47;100.00;65468.63;4705951;30;20658;-73
2023/02/06 08:54:00;;;;;;;18.20;8.20;;;;;;;-146.47;100.00;65468.63;4709047;30;20083;-72
2023/02/06 08:56:27;;;;;;;16.17;7.80;;;;;;;-146.47;100.00;65468.63;4704293;30;20053;-72
2023/02/06 08:58:53;;;;;;;18.85;8.85;;;;;;;-146.47;100.00;65468.63;4703198;30;20085;-72
2023/02/06 09:01:19;;;;;;;17.55;8.65;;;;;;;-146.47;100.00;65468.63;4703090;30;20050;-73
2023/02/06 09:03:46;;;;;;;16.70;8.20;;;;;;;-146.47;100.00;65468.63;4700326;30;20084;-73
2023/02/06 09:06:13;;;;;;;16.83;7.60;;;;;;;-146.47;100.00;65468.63;4704366;30;20206;-73
2023/02/06 09:08:39;;;;;;;24.30;8.73;;;;;;;-146.47;100.00;65468.63;4717739;30;20052;-73
2023/02/06 09:11:16;;;;;;;18.25;8.10;;;;;;;-146.47;100.00;65468.63;4718554;30;20048;-72
2023/02/06 09:13:46;;;;;;;16.90;8.35;;;;;;;-146.47;100.00;65468.63;4721401;30;20064;-73
2023/02/06 09:16:13;;;;;;;17.42;7.18;;;;;;;-146.47;100.00;65468.63;4717836;30;20057;-73
2023/02/06 09:18:38;;;;;;;22.45;8.98;;;;;;;-146.47;100.00;65468.63;4700808;30;20049;-73
2023/02/06 09:21:10;;;;;;;15.05;7.50;;;;;;;-146.47;100.00;65468.63;4699636;30;20064;-73
2023/02/06 09:23:38;;;;;;;24.33;8.45;;;;;;;-146.47;100.00;65468.63;4696752;30;20203;-73
2023/02/06 09:26:04;;;;;;;20.13;8.27;;;;;;;-146.47;100.00;65468.63;4697427;30;20056;-73
2023/02/06 09:28:30;;;;;;;17.20;8.82;;;;;;;-146.47;100.00;65468.63;4705399;30;20527;-74
2023/02/06 09:30:55;;;;;;;22.90;9.30;;;;;;;-146.47;100.00;65468.63;4697275;30;20139;-73
2023/02/06 09:33:21;;;;;;;18.10;8.05;;;;;;;-146.47;100.00;65468.63;4709330;30;20569;-74
2023/02/06 09:35:47;;;;;;;17.70;7.85;;;;;;;-146.47;100.00;65468.63;4697450;30;20049;-74
2023/02/06 09:38:12;;;;;;;18.67;9.27;;;;;;;-146.47;100.00;65468.63;4697950;30;20050;-74
2023/02/06 09:40:38;;;;;;;17.23;7.13;;;;;;;-146.47;100.00;65468.63;4698859;30;20053;-74
2023/02/06 09:43:04;;;;;;;19.88;8.68;;;;;;;-146.47;100.00;65468.63;4699342;30;20057;-75
2023/02/06 09:45:31;;;;;;;20.80;9.18;;;;;;;-146.47;100.00;65468.63;4697299;30;20057;-75
2023/02/06 09:48:13;;;;;;;13.05;6.97;;;;;;;-146.47;100.00;65468.63;4698694;30;20054;-75
2023/02/06 09:51:08;;;;;;;17.27;8.07;;;;;;;-146.47;100.00;65468.63;4696344;30;20045;-76
2023/02/06 09:53:49;;;;;;;21.95;8.88;;;;;;;-146.47;100.00;65468.63;4701344;30;20096;-77
2023/02/06 09:56:50;;;;;;;17.15;7.47;;;;;;;-146.47;100.00;65468.63;4698005;30;20052;-77
2023/02/06 09:59:45;;;;;;;13.10;6.97;;;;;;;-146.47;100.00;65468.63;4714997;30;20064;-77
2023/02/06 10:02:26;;;;;;;;;;;;;;;-146.47;100.00;65468.63;4705225;30;20129;-77
2023/02/06 10:05:06;;;;;;;16.15;7.15;;;;;;;-146.47;100.00;65468.63;4698942;30;20063;-78
2023/02/06 10:08:06;;;;;;;18.92;6.97;;;;;;;-146.47;100.00;65468.63;4705828;30;20053;-78
2023/02/06 10:10:41;;;;;;;23.35;6.90;;;;;;;-146.47;100.00;65468.63;4727339;30;20068;-78
2023/02/06 10:13:16;;;;;;;20.38;7.65;;;;;;;-146.47;100.00;65468.63;4699647;30;20100;-78
2023/02/06 10:15:51;;;;;;;23.45;8.45;;;;;;;-146.47;100.00;65468.63;4700256;30;20698;-78
2023/02/06 10:18:32;;;;;;;16.63;7.95;;;;;;;-146.47;100.00;65468.63;4713488;30;20049;-78
2023/02/06 10:21:05;;;;;;;23.63;9.85;;;;;;;-146.47;100.00;65468.63;4711892;30;20152;-78
2023/02/06 10:23:43;;;;;;;15.98;7.90;;;;;;;-146.47;100.00;65468.63;4709292;30;20422;-78
2023/02/06 10:26:16;;;;;;;15.10;7.97;;;;;;;-146.47;100.00;65468.63;4707636;30;20132;-78
2023/02/06 10:28:45;;;;;;;15.55;6.90;;;;;;;-146.47;100.00;65468.63;4705664;30;20116;-77
2023/02/06 10:31:25;;;;;;;15.90;7.63;;;;;;;-146.47;100.00;65468.63;4712375;30;20049;-77
2023/02/06 10:34:07;;;;;;;16.50;7.72;;;;;;;-146.47;100.00;65468.63;4701725;30;20133;-78
2023/02/06 10:36:50;;;;;;;18.17;8.10;;;;;;;-146.47;100.00;65468.63;4699632;30;20049;-78
2023/02/06 10:39:47;;;;;;;17.10;7.97;;;;;;;-146.47;100.00;65468.63;4721749;30;20061;-77
2023/02/06 10:42:21;;;;;;;15.95;7.18;;;;;;;-146.47;100.00;65468.63;4702760;30;20049;-78
2023/02/06 10:45:09;;;;;;;;;;;;;;;-146.47;100.00;65468.63;4702675;30;20061;-77
2023/02/06 10:47:50;;;;;;;15.35;6.95;;;;;;;-146.47;100.00;65468.63;4708691;30;20005;-77
2023/02/06 10:50:30;;;;;;;14.27;7.00;;;;;;;-146.47;100.00;65468.63;4705702;30;20052;-78
2023/02/06 10:52:59;;;;;;;16.08;7.95;;;;;;;-146.47;100.00;65468.63;4707901;30;20430;-80
2023/02/06 10:55:31;;;;;;;15.30;7.28;;;;;;;-146.47;100.00;65468.63;4711488;30;20510;-80
2023/02/06 10:58:17;;;;;;;13.20;7.30;;;;;;;-146.47;100.00;65468.63;4723578;30;20056;-81
2023/02/06 11:00:45;;;;;;;17.35;7.95;;;;;;;-146.47;100.00;65468.63;4723300;30;20534;-81
2023/02/06 11:03:17;;;;;;;14.95;7.22;;;;;;;-146.47;100.00;65468.63;4722803;30;20503;-80
2023/02/06 11:05:44;;;;;;;22.23;7.55;;;;;;;-146.47;100.00;65468.63;4720881;30;20111;-82